YXNN weather

Nanango Hospital Helipad
Nanango, Queensland, Australia

Public forecast

Using degrees Celsius for public forecast. Weather courtesy of forecast.io.

METAR (pilot weather report)

Closest report is Kingaroy Airport, 10.3 nm (19.1 km) WNW. Retrieved 2019/04/19 03:00 UTC (1 hour ago):

YKRY 190300Z AUTO 11012KT 9999 // SCT029 BKN040 BKN054 25/17 Q1022

TAF (pilot weather forecast)

Forecast is more than 6 hours old.

Closest forecast is RAAF Base Amberley, 69.6 nm (128.9 km) SSE. Retrieved 2019/04/18 18:00 UTC (10 hours ago):

TAF YAMB 181653Z 1818/1912 16005KT 9999 FEW025 SCT035 FM182300 14012KT 9999 -SHRA SCT035 BKN050 INTER 1900/1912 VRB15G25KT 5000 -SHRA BKN020 BKN035